sensor_id;sensor_type;location;lat;lon;timestamp;P1;durP1;ratioP1;P2;durP2;ratioP2
7525;SDS011;3804;50.860;6.208;2023-05-15T00:01:58;37.23;;;25.60;;
7525;SDS011;3804;50.860;6.208;2023-05-15T00:04:25;32.27;;;24.83;;
7525;SDS011;3804;50.860;6.208;2023-05-15T00:06:52;33.10;;;25.53;;
7525;SDS011;3804;50.860;6.208;2023-05-15T00:09:19;34.03;;;26.67;;
7525;SDS011;3804;50.860;6.208;2023-05-15T00:11:46;33.83;;;26.63;;
7525;SDS011;3804;50.860;6.208;2023-05-15T00:14:12;32.93;;;25.80;;
7525;SDS011;3804;50.860;6.208;2023-05-15T00:16:39;38.37;;;25.33;;
7525;SDS011;3804;50.860;6.208;2023-05-15T00:19:06;37.00;;;25.27;;
7525;SDS011;3804;50.860;6.208;2023-05-15T00:21:33;36.77;;;26.00;;
7525;SDS011;3804;50.860;6.208;2023-05-15T00:24:00;39.43;;;27.40;;
7525;SDS011;3804;50.860;6.208;2023-05-15T00:26:27;39.27;;;25.77;;
7525;SDS011;3804;50.860;6.208;2023-05-15T00:28:54;36.93;;;26.23;;
7525;SDS011;3804;50.860;6.208;2023-05-15T00:31:22;39.20;;;25.43;;
7525;SDS011;3804;50.860;6.208;2023-05-15T00:33:50;34.80;;;26.83;;
7525;SDS011;3804;50.860;6.208;2023-05-15T00:36:17;35.30;;;26.27;;
7525;SDS011;3804;50.860;6.208;2023-05-15T00:38:44;39.70;;;27.80;;
7525;SDS011;3804;50.860;6.208;2023-05-15T00:41:11;36.97;;;26.93;;
7525;SDS011;3804;50.860;6.208;2023-05-15T00:43:38;40.43;;;27.17;;
7525;SDS011;3804;50.860;6.208;2023-05-15T00:46:06;35.03;;;27.37;;
7525;SDS011;3804;50.860;6.208;2023-05-15T00:48:33;38.40;;;27.37;;
7525;SDS011;3804;50.860;6.208;2023-05-15T00:51:01;33.97;;;26.23;;
7525;SDS011;3804;50.860;6.208;2023-05-15T00:53:28;37.17;;;27.60;;
7525;SDS011;3804;50.860;6.208;2023-05-15T00:55:56;37.47;;;27.63;;
7525;SDS011;3804;50.860;6.208;2023-05-15T00:58:25;39.43;;;28.23;;
7525;SDS011;3804;50.860;6.208;2023-05-15T01:00:53;38.33;;;28.57;;
7525;SDS011;3804;50.860;6.208;2023-05-15T01:03:19;37.47;;;27.93;;
7525;SDS011;3804;50.860;6.208;2023-05-15T01:05:46;36.30;;;27.80;;
7525;SDS011;3804;50.860;6.208;2023-05-15T01:10:40;35.13;;;26.83;;
7525;SDS011;3804;50.860;6.208;2023-05-15T01:13:08;37.00;;;26.90;;
7525;SDS011;3804;50.860;6.208;2023-05-15T01:15:35;38.93;;;26.47;;
7525;SDS011;3804;50.860;6.208;2023-05-15T01:18:03;35.63;;;26.00;;
7525;SDS011;3804;50.860;6.208;2023-05-15T01:20:38;33.43;;;25.33;;
7525;SDS011;3804;50.860;6.208;2023-05-15T01:23:14;33.73;;;26.07;;
7525;SDS011;3804;50.860;6.208;2023-05-15T01:25:45;34.87;;;25.37;;
7525;SDS011;3804;50.860;6.208;2023-05-15T01:28:21;35.77;;;25.07;;
7525;SDS011;3804;50.860;6.208;2023-05-15T01:30:49;34.97;;;25.30;;
7525;SDS011;3804;50.860;6.208;2023-05-15T01:33:20;34.07;;;24.33;;
7525;SDS011;3804;50.860;6.208;2023-05-15T01:35:58;36.50;;;25.47;;
7525;SDS011;3804;50.860;6.208;2023-05-15T01:41:03;36.50;;;27.63;;
7525;SDS011;3804;50.860;6.208;2023-05-15T01:43:32;43.63;;;30.57;;
7525;SDS011;3804;50.860;6.208;2023-05-15T01:46:00;47.37;;;31.50;;
7525;SDS011;3804;50.860;6.208;2023-05-15T01:48:28;47.00;;;33.07;;
7525;SDS011;3804;50.860;6.208;2023-05-15T01:50:57;47.97;;;33.50;;
7525;SDS011;3804;50.860;6.208;2023-05-15T01:53:27;48.57;;;33.27;;
7525;SDS011;3804;50.860;6.208;2023-05-15T01:55:54;49.23;;;34.33;;
7525;SDS011;3804;50.860;6.208;2023-05-15T01:58:21;50.03;;;35.83;;
7525;SDS011;3804;50.860;6.208;2023-05-15T02:00:48;48.00;;;36.13;;
7525;SDS011;3804;50.860;6.208;2023-05-15T02:03:16;53.83;;;35.80;;
7525;SDS011;3804;50.860;6.208;2023-05-15T02:05:43;47.93;;;34.60;;
7525;SDS011;3804;50.860;6.208;2023-05-15T02:08:13;49.03;;;33.67;;
7525;SDS011;3804;50.860;6.208;2023-05-15T02:10:42;48.03;;;35.03;;
7525;SDS011;3804;50.860;6.208;2023-05-15T02:13:09;50.80;;;34.77;;
7525;SDS011;3804;50.860;6.208;2023-05-15T02:15:36;52.07;;;35.13;;
7525;SDS011;3804;50.860;6.208;2023-05-15T02:18:04;46.57;;;33.80;;
7525;SDS011;3804;50.860;6.208;2023-05-15T02:20:30;50.93;;;35.00;;
7525;SDS011;3804;50.860;6.208;2023-05-15T02:22:57;46.63;;;34.50;;
7525;SDS011;3804;50.860;6.208;2023-05-15T02:25:26;46.90;;;34.50;;
7525;SDS011;3804;50.860;6.208;2023-05-15T02:27:59;47.73;;;35.60;;
7525;SDS011;3804;50.860;6.208;2023-05-15T02:30:34;48.73;;;34.30;;
7525;SDS011;3804;50.860;6.208;2023-05-15T02:35:38;49.27;;;34.00;;
7525;SDS011;3804;50.860;6.208;2023-05-15T02:38:08;48.47;;;34.70;;
7525;SDS011;3804;50.860;6.208;2023-05-15T02:40:37;49.60;;;34.67;;
7525;SDS011;3804;50.860;6.208;2023-05-15T02:43:05;47.70;;;32.70;;
7525;SDS011;3804;50.860;6.208;2023-05-15T02:45:32;46.37;;;34.40;;
7525;SDS011;3804;50.860;6.208;2023-05-15T02:48:00;47.97;;;34.67;;
7525;SDS011;3804;50.860;6.208;2023-05-15T02:50:27;50.40;;;35.63;;
7525;SDS011;3804;50.860;6.208;2023-05-15T02:53:04;46.67;;;34.57;;
7525;SDS011;3804;50.860;6.208;2023-05-15T02:55:30;59.03;;;35.73;;
7525;SDS011;3804;50.860;6.208;2023-05-15T02:57:58;46.00;;;34.27;;
7525;SDS011;3804;50.860;6.208;2023-05-15T03:00:25;47.70;;;35.33;;
7525;SDS011;3804;50.860;6.208;2023-05-15T03:02:52;52.93;;;35.13;;
7525;SDS011;3804;50.860;6.208;2023-05-15T03:05:19;55.37;;;35.23;;
7525;SDS011;3804;50.860;6.208;2023-05-15T03:07:46;47.37;;;34.77;;
7525;SDS011;3804;50.860;6.208;2023-05-15T03:10:13;47.47;;;35.33;;
7525;SDS011;3804;50.860;6.208;2023-05-15T03:12:40;56.57;;;37.07;;
7525;SDS011;3804;50.860;6.208;2023-05-15T03:15:06;48.70;;;35.83;;
7525;SDS011;3804;50.860;6.208;2023-05-15T03:17:33;56.60;;;37.77;;
7525;SDS011;3804;50.860;6.208;2023-05-15T03:20:00;53.47;;;37.27;;
7525;SDS011;3804;50.860;6.208;2023-05-15T03:22:27;57.77;;;37.43;;
7525;SDS011;3804;50.860;6.208;2023-05-15T03:24:54;51.10;;;36.57;;
7525;SDS011;3804;50.860;6.208;2023-05-15T03:27:21;51.97;;;35.57;;
7525;SDS011;3804;50.860;6.208;2023-05-15T03:29:48;53.33;;;36.37;;
7525;SDS011;3804;50.860;6.208;2023-05-15T03:32:16;50.80;;;35.70;;
7525;SDS011;3804;50.860;6.208;2023-05-15T03:34:43;52.80;;;38.13;;
7525;SDS011;3804;50.860;6.208;2023-05-15T03:37:10;51.33;;;36.47;;
7525;SDS011;3804;50.860;6.208;2023-05-15T03:39:37;53.27;;;36.83;;
7525;SDS011;3804;50.860;6.208;2023-05-15T03:42:03;52.83;;;37.73;;
7525;SDS011;3804;50.860;6.208;2023-05-15T03:44:30;61.73;;;38.93;;
7525;SDS011;3804;50.860;6.208;2023-05-15T03:46:58;52.93;;;37.03;;
7525;SDS011;3804;50.860;6.208;2023-05-15T03:49:25;57.43;;;38.03;;
7525;SDS011;3804;50.860;6.208;2023-05-15T03:51:52;53.40;;;37.20;;
7525;SDS011;3804;50.860;6.208;2023-05-15T03:54:19;56.73;;;36.53;;
7525;SDS011;3804;50.860;6.208;2023-05-15T03:56:46;53.60;;;36.63;;
7525;SDS011;3804;50.860;6.208;2023-05-15T03:59:12;57.03;;;38.13;;
7525;SDS011;3804;50.860;6.208;2023-05-15T04:01:40;55.10;;;37.27;;
7525;SDS011;3804;50.860;6.208;2023-05-15T04:04:26;51.73;;;35.20;;
7525;SDS011;3804;50.860;6.208;2023-05-15T04:06:53;49.27;;;34.50;;
7525;SDS011;3804;50.860;6.208;2023-05-15T04:09:20;50.67;;;34.83;;
7525;SDS011;3804;50.860;6.208;2023-05-15T04:11:46;46.23;;;34.70;;
7525;SDS011;3804;50.860;6.208;2023-05-15T04:14:13;48.43;;;35.83;;
7525;SDS011;3804;50.860;6.208;2023-05-15T04:16:40;47.73;;;33.33;;
7525;SDS011;3804;50.860;6.208;2023-05-15T04:19:07;48.77;;;35.07;;
7525;SDS011;3804;50.860;6.208;2023-05-15T04:21:34;48.87;;;35.47;;
7525;SDS011;3804;50.860;6.208;2023-05-15T04:24:00;49.47;;;35.30;;
7525;SDS011;3804;50.860;6.208;2023-05-15T04:26:27;54.40;;;36.50;;
7525;SDS011;3804;50.860;6.208;2023-05-15T04:28:54;53.67;;;36.47;;
7525;SDS011;3804;50.860;6.208;2023-05-15T04:31:30;51.73;;;36.30;;
7525;SDS011;3804;50.860;6.208;2023-05-15T04:33:57;57.03;;;37.20;;
7525;SDS011;3804;50.860;6.208;2023-05-15T04:36:24;54.23;;;38.17;;
7525;SDS011;3804;50.860;6.208;2023-05-15T04:38:51;61.63;;;37.47;;
7525;SDS011;3804;50.860;6.208;2023-05-15T04:41:17;54.20;;;36.63;;
7525;SDS011;3804;50.860;6.208;2023-05-15T04:43:44;59.07;;;39.50;;
7525;SDS011;3804;50.860;6.208;2023-05-15T04:46:11;53.83;;;38.97;;
7525;SDS011;3804;50.860;6.208;2023-05-15T04:48:39;58.90;;;38.80;;
7525;SDS011;3804;50.860;6.208;2023-05-15T04:51:05;59.60;;;36.93;;
7525;SDS011;3804;50.860;6.208;2023-05-15T04:53:33;64.77;;;39.67;;
7525;SDS011;3804;50.860;6.208;2023-05-15T04:55:59;60.37;;;39.40;;
7525;SDS011;3804;50.860;6.208;2023-05-15T04:58:26;57.37;;;40.00;;
7525;SDS011;3804;50.860;6.208;2023-05-15T05:00:53;56.37;;;38.63;;
7525;SDS011;3804;50.860;6.208;2023-05-15T05:03:20;59.60;;;39.10;;
7525;SDS011;3804;50.860;6.208;2023-05-15T05:05:46;59.17;;;38.87;;
7525;SDS011;3804;50.860;6.208;2023-05-15T05:08:13;59.43;;;38.83;;
7525;SDS011;3804;50.860;6.208;2023-05-15T05:10:40;58.03;;;39.60;;
7525;SDS011;3804;50.860;6.208;2023-05-15T05:13:07;57.60;;;38.13;;
7525;SDS011;3804;50.860;6.208;2023-05-15T05:15:33;58.57;;;37.03;;
7525;SDS011;3804;50.860;6.208;2023-05-15T05:18:00;62.33;;;39.53;;
7525;SDS011;3804;50.860;6.208;2023-05-15T05:20:27;58.63;;;38.97;;
7525;SDS011;3804;50.860;6.208;2023-05-15T05:22:54;60.63;;;39.53;;
7525;SDS011;3804;50.860;6.208;2023-05-15T05:25:21;61.13;;;40.03;;
7525;SDS011;3804;50.860;6.208;2023-05-15T05:27:48;60.20;;;37.67;;
7525;SDS011;3804;50.860;6.208;2023-05-15T05:30:15;58.10;;;37.47;;
7525;SDS011;3804;50.860;6.208;2023-05-15T05:32:41;62.83;;;37.43;;
7525;SDS011;3804;50.860;6.208;2023-05-15T05:35:08;55.60;;;36.73;;
7525;SDS011;3804;50.860;6.208;2023-05-15T05:37:35;55.80;;;36.73;;
7525;SDS011;3804;50.860;6.208;2023-05-15T05:40:05;53.97;;;35.97;;
7525;SDS011;3804;50.860;6.208;2023-05-15T05:42:34;62.63;;;37.73;;
7525;SDS011;3804;50.860;6.208;2023-05-15T05:45:01;58.47;;;35.90;;
7525;SDS011;3804;50.860;6.208;2023-05-15T05:47:27;59.80;;;38.17;;
7525;SDS011;3804;50.860;6.208;2023-05-15T05:49:54;57.83;;;37.27;;
7525;SDS011;3804;50.860;6.208;2023-05-15T05:52:21;56.53;;;37.17;;
7525;SDS011;3804;50.860;6.208;2023-05-15T05:54:48;52.97;;;35.93;;
7525;SDS011;3804;50.860;6.208;2023-05-15T05:57:14;52.20;;;35.87;;
7525;SDS011;3804;50.860;6.208;2023-05-15T05:59:41;45.53;;;31.27;;
7525;SDS011;3804;50.860;6.208;2023-05-15T06:02:09;51.23;;;31.53;;
7525;SDS011;3804;50.860;6.208;2023-05-15T06:04:36;52.40;;;33.70;;
7525;SDS011;3804;50.860;6.208;2023-05-15T06:07:03;52.10;;;34.30;;
7525;SDS011;3804;50.860;6.208;2023-05-15T06:09:30;52.13;;;32.57;;
7525;SDS011;3804;50.860;6.208;2023-05-15T06:11:57;49.90;;;32.73;;
7525;SDS011;3804;50.860;6.208;2023-05-15T06:14:24;48.43;;;32.23;;
7525;SDS011;3804;50.860;6.208;2023-05-15T06:16:51;45.50;;;31.90;;
7525;SDS011;3804;50.860;6.208;2023-05-15T06:19:18;53.33;;;33.03;;
7525;SDS011;3804;50.860;6.208;2023-05-15T06:21:45;45.20;;;30.67;;
7525;SDS011;3804;50.860;6.208;2023-05-15T06:24:11;48.40;;;31.73;;
7525;SDS011;3804;50.860;6.208;2023-05-15T06:26:38;47.10;;;30.63;;
7525;SDS011;3804;50.860;6.208;2023-05-15T06:29:05;47.50;;;32.30;;
7525;SDS011;3804;50.860;6.208;2023-05-15T06:31:32;44.67;;;29.60;;
7525;SDS011;3804;50.860;6.208;2023-05-15T06:33:59;48.70;;;29.63;;
7525;SDS011;3804;50.860;6.208;2023-05-15T06:36:25;42.77;;;28.57;;
7525;SDS011;3804;50.860;6.208;2023-05-15T06:38:52;39.73;;;27.13;;
7525;SDS011;3804;50.860;6.208;2023-05-15T06:41:19;37.17;;;25.57;;
7525;SDS011;3804;50.860;6.208;2023-05-15T06:43:46;42.40;;;26.57;;
7525;SDS011;3804;50.860;6.208;2023-05-15T06:46:13;38.27;;;28.07;;
7525;SDS011;3804;50.860;6.208;2023-05-15T06:48:42;39.97;;;28.27;;
7525;SDS011;3804;50.860;6.208;2023-05-15T06:51:09;43.90;;;28.83;;
7525;SDS011;3804;50.860;6.208;2023-05-15T06:53:36;42.17;;;28.97;;
7525;SDS011;3804;50.860;6.208;2023-05-15T06:56:03;40.93;;;27.33;;
7525;SDS011;3804;50.860;6.208;2023-05-15T06:58:30;36.17;;;26.77;;
7525;SDS011;3804;50.860;6.208;2023-05-15T07:00:56;41.43;;;28.97;;
7525;SDS011;3804;50.860;6.208;2023-05-15T07:03:24;42.23;;;28.43;;
7525;SDS011;3804;50.860;6.208;2023-05-15T07:05:52;40.23;;;28.33;;
7525;SDS011;3804;50.860;6.208;2023-05-15T07:08:19;37.73;;;27.60;;
7525;SDS011;3804;50.860;6.208;2023-05-15T07:10:45;41.03;;;28.27;;
7525;SDS011;3804;50.860;6.208;2023-05-15T07:13:14;41.87;;;28.67;;
7525;SDS011;3804;50.860;6.208;2023-05-15T07:15:41;42.67;;;29.67;;
7525;SDS011;3804;50.860;6.208;2023-05-15T07:18:08;42.00;;;29.07;;
7525;SDS011;3804;50.860;6.208;2023-05-15T07:20:35;41.00;;;30.03;;
7525;SDS011;3804;50.860;6.208;2023-05-15T07:23:02;42.47;;;29.63;;
7525;SDS011;3804;50.860;6.208;2023-05-15T07:25:29;41.80;;;29.43;;
7525;SDS011;3804;50.860;6.208;2023-05-15T07:27:56;41.93;;;28.90;;
7525;SDS011;3804;50.860;6.208;2023-05-15T07:30:23;41.80;;;28.87;;
7525;SDS011;3804;50.860;6.208;2023-05-15T07:32:50;42.60;;;29.27;;
7525;SDS011;3804;50.860;6.208;2023-05-15T07:35:17;43.43;;;30.37;;
7525;SDS011;3804;50.860;6.208;2023-05-15T07:37:44;40.07;;;28.17;;
7525;SDS011;3804;50.860;6.208;2023-05-15T07:40:12;37.40;;;28.13;;
7525;SDS011;3804;50.860;6.208;2023-05-15T07:42:41;36.57;;;26.37;;
7525;SDS011;3804;50.860;6.208;2023-05-15T07:45:08;32.30;;;26.30;;
7525;SDS011;3804;50.860;6.208;2023-05-15T07:47:35;34.10;;;26.30;;
7525;SDS011;3804;50.860;6.208;2023-05-15T07:50:02;38.03;;;28.30;;
7525;SDS011;3804;50.860;6.208;2023-05-15T07:52:29;34.23;;;26.60;;
7525;SDS011;3804;50.860;6.208;2023-05-15T07:54:56;36.23;;;26.70;;
7525;SDS011;3804;50.860;6.208;2023-05-15T07:57:22;35.47;;;25.57;;
7525;SDS011;3804;50.860;6.208;2023-05-15T07:59:50;33.03;;;25.37;;
7525;SDS011;3804;50.860;6.208;2023-05-15T08:02:17;34.83;;;24.67;;
7525;SDS011;3804;50.860;6.208;2023-05-15T08:04:44;28.33;;;23.87;;
7525;SDS011;3804;50.860;6.208;2023-05-15T08:07:12;29.70;;;23.80;;
7525;SDS011;3804;50.860;6.208;2023-05-15T08:09:39;31.90;;;25.43;;
7525;SDS011;3804;50.860;6.208;2023-05-15T08:12:15;31.63;;;23.77;;
7525;SDS011;3804;50.860;6.208;2023-05-15T08:14:43;29.50;;;24.33;;
7525;SDS011;3804;50.860;6.208;2023-05-15T08:17:09;30.33;;;24.60;;
7525;SDS011;3804;50.860;6.208;2023-05-15T08:19:37;30.23;;;23.33;;
7525;SDS011;3804;50.860;6.208;2023-05-15T08:22:03;29.67;;;24.83;;
7525;SDS011;3804;50.860;6.208;2023-05-15T08:24:30;28.93;;;22.53;;
7525;SDS011;3804;50.860;6.208;2023-05-15T08:26:57;29.57;;;23.73;;
7525;SDS011;3804;50.860;6.208;2023-05-15T08:29:23;30.10;;;21.90;;
7525;SDS011;3804;50.860;6.208;2023-05-15T08:31:50;24.60;;;20.20;;
7525;SDS011;3804;50.860;6.208;2023-05-15T08:34:17;26.10;;;21.57;;
7525;SDS011;3804;50.860;6.208;2023-05-15T08:36:44;26.30;;;20.87;;
7525;SDS011;3804;50.860;6.208;2023-05-15T08:39:11;25.47;;;20.63;;
7525;SDS011;3804;50.860;6.208;2023-05-15T08:41:44;24.13;;;20.00;;
7525;SDS011;3804;50.860;6.208;2023-05-15T08:44:13;24.73;;;20.37;;
7525;SDS011;3804;50.860;6.208;2023-05-15T08:46:40;27.27;;;20.57;;
7525;SDS011;3804;50.860;6.208;2023-05-15T08:49:10;24.60;;;19.67;;
7525;SDS011;3804;50.860;6.208;2023-05-15T08:51:37;25.90;;;20.70;;
7525;SDS011;3804;50.860;6.208;2023-05-15T08:54:04;27.10;;;19.80;;
7525;SDS011;3804;50.860;6.208;2023-05-15T08:56:31;23.27;;;19.87;;
7525;SDS011;3804;50.860;6.208;2023-05-15T08:58:58;21.80;;;18.30;;
7525;SDS011;3804;50.860;6.208;2023-05-15T09:01:25;21.77;;;18.35;;
7525;SDS011;3804;50.860;6.208;2023-05-15T09:03:53;22.15;;;19.60;;
7525;SDS011;3804;50.860;6.208;2023-05-15T09:06:20;21.80;;;18.08;;
7525;SDS011;3804;50.860;6.208;2023-05-15T09:08:47;20.47;;;16.80;;
7525;SDS011;3804;50.860;6.208;2023-05-15T09:11:15;19.73;;;16.77;;
7525;SDS011;3804;50.860;6.208;2023-05-15T09:13:42;22.52;;;20.05;;
7525;SDS011;3804;50.860;6.208;2023-05-15T09:16:09;22.53;;;19.03;;
7525;SDS011;3804;50.860;6.208;2023-05-15T09:18:36;19.05;;;15.35;;
7525;SDS011;3804;50.860;6.208;2023-05-15T09:23:54;20.73;;;18.52;;
7525;SDS011;3804;50.860;6.208;2023-05-15T09:26:21;22.17;;;18.67;;
7525;SDS011;3804;50.860;6.208;2023-05-15T09:28:47;23.13;;;19.13;;
7525;SDS011;3804;50.860;6.208;2023-05-15T09:31:17;21.65;;;18.88;;
7525;SDS011;3804;50.860;6.208;2023-05-15T09:33:45;20.33;;;18.02;;
7525;SDS011;3804;50.860;6.208;2023-05-15T09:36:11;20.95;;;17.33;;
7525;SDS011;3804;50.860;6.208;2023-05-15T09:38:46;22.55;;;17.63;;
7525;SDS011;3804;50.860;6.208;2023-05-15T09:41:14;20.35;;;17.90;;
7525;SDS011;3804;50.860;6.208;2023-05-15T09:43:49;19.75;;;17.50;;
7525;SDS011;3804;50.860;6.208;2023-05-15T09:46:16;20.17;;;17.17;;
7525;SDS011;3804;50.860;6.208;2023-05-15T09:48:43;21.92;;;18.50;;
7525;SDS011;3804;50.860;6.208;2023-05-15T09:51:13;18.27;;;15.93;;
7525;SDS011;3804;50.860;6.208;2023-05-15T09:53:40;19.37;;;16.70;;
7525;SDS011;3804;50.860;6.208;2023-05-15T09:56:08;19.57;;;16.67;;
7525;SDS011;3804;50.860;6.208;2023-05-15T09:58:35;18.73;;;16.00;;
7525;SDS011;3804;50.860;6.208;2023-05-15T10:01:02;16.13;;;14.20;;
7525;SDS011;3804;50.860;6.208;2023-05-15T10:03:36;17.27;;;14.50;;
7525;SDS011;3804;50.860;6.208;2023-05-15T10:06:02;19.40;;;16.23;;
7525;SDS011;3804;50.860;6.208;2023-05-15T10:08:30;18.30;;;15.67;;
7525;SDS011;3804;50.860;6.208;2023-05-15T10:10:58;18.83;;;16.80;;
7525;SDS011;3804;50.860;6.208;2023-05-15T10:13:25;23.23;;;17.25;;
7525;SDS011;3804;50.860;6.208;2023-05-15T10:15:53;19.13;;;16.13;;
7525;SDS011;3804;50.860;6.208;2023-05-15T10:18:21;21.67;;;17.48;;
7525;SDS011;3804;50.860;6.208;2023-05-15T10:20:53;19.50;;;17.42;;
7525;SDS011;3804;50.860;6.208;2023-05-15T10:23:20;21.08;;;17.52;;
7525;SDS011;3804;50.860;6.208;2023-05-15T10:25:49;20.23;;;16.77;;
7525;SDS011;3804;50.860;6.208;2023-05-15T10:28:20;19.90;;;17.75;;
7525;SDS011;3804;50.860;6.208;2023-05-15T10:30:48;22.27;;;18.27;;
7525;SDS011;3804;50.860;6.208;2023-05-15T10:33:15;23.70;;;19.73;;
7525;SDS011;3804;50.860;6.208;2023-05-15T10:35:42;22.38;;;19.60;;
7525;SDS011;3804;50.860;6.208;2023-05-15T10:38:09;18.88;;;16.55;;
7525;SDS011;3804;50.860;6.208;2023-05-15T10:40:37;21.08;;;18.60;;
7525;SDS011;3804;50.860;6.208;2023-05-15T10:43:05;19.35;;;17.30;;
7525;SDS011;3804;50.860;6.208;2023-05-15T10:45:34;20.58;;;18.58;;
7525;SDS011;3804;50.860;6.208;2023-05-15T10:48:01;22.23;;;19.58;;
7525;SDS011;3804;50.860;6.208;2023-05-15T10:50:31;22.00;;;18.73;;
7525;SDS011;3804;50.860;6.208;2023-05-15T10:52:58;21.43;;;18.80;;
7525;SDS011;3804;50.860;6.208;2023-05-15T10:55:25;22.60;;;17.63;;
7525;SDS011;3804;50.860;6.208;2023-05-15T10:57:52;19.27;;;17.23;;
7525;SDS011;3804;50.860;6.208;2023-05-15T11:00:27;18.83;;;16.83;;
7525;SDS011;3804;50.860;6.208;2023-05-15T11:02:55;21.40;;;17.93;;
7525;SDS011;3804;50.860;6.208;2023-05-15T11:05:24;19.00;;;17.07;;
7525;SDS011;3804;50.860;6.208;2023-05-15T11:10:37;17.03;;;14.37;;
7525;SDS011;3804;50.860;6.208;2023-05-15T11:13:04;17.07;;;14.63;;
7525;SDS011;3804;50.860;6.208;2023-05-15T11:15:44;17.90;;;14.57;;
7525;SDS011;3804;50.860;6.208;2023-05-15T11:18:12;18.90;;;15.30;;
7525;SDS011;3804;50.860;6.208;2023-05-15T11:23:15;17.70;;;13.63;;
7525;SDS011;3804;50.860;6.208;2023-05-15T11:25:55;16.70;;;14.17;;
7525;SDS011;3804;50.860;6.208;2023-05-15T11:28:23;13.70;;;12.30;;
7525;SDS011;3804;50.860;6.208;2023-05-15T11:30:50;14.90;;;13.30;;
7525;SDS011;3804;50.860;6.208;2023-05-15T11:33:18;12.80;;;10.23;;
7525;SDS011;3804;50.860;6.208;2023-05-15T11:35:46;14.13;;;11.57;;
7525;SDS011;3804;50.860;6.208;2023-05-15T11:38:16;15.90;;;13.40;;
7525;SDS011;3804;50.860;6.208;2023-05-15T11:43:20;12.10;;;10.80;;
7525;SDS011;3804;50.860;6.208;2023-05-15T11:45:49;11.17;;;9.50;;
7525;SDS011;3804;50.860;6.208;2023-05-15T11:48:16;10.77;;;9.37;;
7525;SDS011;3804;50.860;6.208;2023-05-15T11:50:43;11.33;;;10.23;;
7525;SDS011;3804;50.860;6.208;2023-05-15T11:53:11;15.23;;;12.87;;
7525;SDS011;3804;50.860;6.208;2023-05-15T11:55:38;16.73;;;15.00;;
7525;SDS011;3804;50.860;6.208;2023-05-15T11:58:15;14.70;;;13.18;;
7525;SDS011;3804;50.860;6.208;2023-05-15T12:00:43;13.38;;;12.02;;
7525;SDS011;3804;50.860;6.208;2023-05-15T12:03:12;13.27;;;11.98;;
7525;SDS011;3804;50.860;6.208;2023-05-15T12:05:39;11.60;;;10.40;;
7525;SDS011;3804;50.860;6.208;2023-05-15T12:08:23;13.02;;;9.88;;
7525;SDS011;3804;50.860;6.208;2023-05-15T12:10:50;14.53;;;12.50;;
7525;SDS011;3804;50.860;6.208;2023-05-15T12:13:17;15.47;;;13.87;;
7525;SDS011;3804;50.860;6.208;2023-05-15T12:15:44;13.13;;;11.80;;
7525;SDS011;3804;50.860;6.208;2023-05-15T12:18:11;15.60;;;11.10;;
7525;SDS011;3804;50.860;6.208;2023-05-15T12:20:39;20.37;;;14.50;;
7525;SDS011;3804;50.860;6.208;2023-05-15T12:23:13;16.07;;;14.13;;
7525;SDS011;3804;50.860;6.208;2023-05-15T12:25:40;16.23;;;13.83;;
7525;SDS011;3804;50.860;6.208;2023-05-15T12:28:07;15.67;;;12.57;;
7525;SDS011;3804;50.860;6.208;2023-05-15T12:30:34;12.07;;;9.37;;
7525;SDS011;3804;50.860;6.208;2023-05-15T12:33:02;12.77;;;9.90;;
7525;SDS011;3804;50.860;6.208;2023-05-15T12:35:33;13.93;;;10.63;;
7525;SDS011;3804;50.860;6.208;2023-05-15T12:38:03;11.53;;;10.43;;
7525;SDS011;3804;50.860;6.208;2023-05-15T12:40:34;12.33;;;11.13;;
7525;SDS011;3804;50.860;6.208;2023-05-15T12:43:04;8.87;;;7.97;;
7525;SDS011;3804;50.860;6.208;2023-05-15T12:45:31;8.37;;;7.50;;
7525;SDS011;3804;50.860;6.208;2023-05-15T12:48:00;12.57;;;9.30;;
7525;SDS011;3804;50.860;6.208;2023-05-15T12:50:30;10.20;;;8.97;;
7525;SDS011;3804;50.860;6.208;2023-05-15T12:52:59;11.63;;;9.63;;
7525;SDS011;3804;50.860;6.208;2023-05-15T12:55:30;11.07;;;9.70;;
7525;SDS011;3804;50.860;6.208;2023-05-15T12:57:58;7.90;;;7.03;;
7525;SDS011;3804;50.860;6.208;2023-05-15T13:00:25;8.63;;;7.07;;
7525;SDS011;3804;50.860;6.208;2023-05-15T13:02:55;6.73;;;5.43;;
7525;SDS011;3804;50.860;6.208;2023-05-15T13:05:22;7.53;;;6.60;;
7525;SDS011;3804;50.860;6.208;2023-05-15T13:07:49;7.63;;;6.03;;
7525;SDS011;3804;50.860;6.208;2023-05-15T13:10:21;15.87;;;14.10;;
7525;SDS011;3804;50.860;6.208;2023-05-15T13:12:50;18.87;;;16.83;;
7525;SDS011;3804;50.860;6.208;2023-05-15T13:15:21;17.87;;;15.97;;
7525;SDS011;3804;50.860;6.208;2023-05-15T13:17:50;17.03;;;14.37;;
7525;SDS011;3804;50.860;6.208;2023-05-15T13:20:17;20.47;;;16.77;;
7525;SDS011;3804;50.860;6.208;2023-05-15T13:22:44;20.10;;;16.77;;
7525;SDS011;3804;50.860;6.208;2023-05-15T13:25:11;18.33;;;14.40;;
7525;SDS011;3804;50.860;6.208;2023-05-15T13:27:38;19.33;;;16.40;;
7525;SDS011;3804;50.860;6.208;2023-05-15T13:30:05;19.23;;;15.97;;
7525;SDS011;3804;50.860;6.208;2023-05-15T13:32:32;17.80;;;15.90;;
7525;SDS011;3804;50.860;6.208;2023-05-15T13:34:59;18.53;;;15.87;;
7525;SDS011;3804;50.860;6.208;2023-05-15T13:37:26;18.17;;;16.27;;
7525;SDS011;3804;50.860;6.208;2023-05-15T13:39:53;19.00;;;15.97;;
7525;SDS011;3804;50.860;6.208;2023-05-15T13:42:20;19.00;;;15.80;;
7525;SDS011;3804;50.860;6.208;2023-05-15T13:44:46;18.90;;;15.63;;
7525;SDS011;3804;50.860;6.208;2023-05-15T13:47:13;18.47;;;16.47;;
7525;SDS011;3804;50.860;6.208;2023-05-15T13:49:41;17.53;;;15.77;;
7525;SDS011;3804;50.860;6.208;2023-05-15T13:52:08;20.77;;;16.83;;
7525;SDS011;3804;50.860;6.208;2023-05-15T13:54:34;19.13;;;15.70;;
7525;SDS011;3804;50.860;6.208;2023-05-15T13:57:01;18.83;;;16.13;;
7525;SDS011;3804;50.860;6.208;2023-05-15T13:59:28;20.20;;;17.87;;
7525;SDS011;3804;50.860;6.208;2023-05-15T14:01:55;19.70;;;16.90;;
7525;SDS011;3804;50.860;6.208;2023-05-15T14:04:23;20.13;;;17.93;;
7525;SDS011;3804;50.860;6.208;2023-05-15T14:06:50;22.60;;;18.60;;
7525;SDS011;3804;50.860;6.208;2023-05-15T14:09:18;20.03;;;17.60;;
7525;SDS011;3804;50.860;6.208;2023-05-15T14:11:45;21.43;;;18.20;;
7525;SDS011;3804;50.860;6.208;2023-05-15T14:14:11;20.57;;;18.37;;
7525;SDS011;3804;50.860;6.208;2023-05-15T14:16:39;18.00;;;15.73;;
7525;SDS011;3804;50.860;6.208;2023-05-15T14:19:06;17.87;;;15.93;;
7525;SDS011;3804;50.860;6.208;2023-05-15T14:21:32;17.60;;;13.40;;
7525;SDS011;3804;50.860;6.208;2023-05-15T14:23:59;16.80;;;14.87;;
7525;SDS011;3804;50.860;6.208;2023-05-15T14:26:26;17.87;;;15.23;;
7525;SDS011;3804;50.860;6.208;2023-05-15T14:28:52;17.57;;;15.57;;
7525;SDS011;3804;50.860;6.208;2023-05-15T14:31:19;21.43;;;18.03;;
7525;SDS011;3804;50.860;6.208;2023-05-15T14:33:46;19.77;;;17.30;;
7525;SDS011;3804;50.860;6.208;2023-05-15T14:36:16;19.83;;;17.73;;
7525;SDS011;3804;50.860;6.208;2023-05-15T14:38:43;19.90;;;16.97;;
7525;SDS011;3804;50.860;6.208;2023-05-15T14:41:13;23.30;;;17.90;;
7525;SDS011;3804;50.860;6.208;2023-05-15T14:43:39;22.97;;;18.73;;
7525;SDS011;3804;50.860;6.208;2023-05-15T14:46:07;22.67;;;19.10;;
7525;SDS011;3804;50.860;6.208;2023-05-15T14:48:36;22.50;;;19.37;;
7525;SDS011;3804;50.860;6.208;2023-05-15T14:51:03;22.37;;;19.10;;
7525;SDS011;3804;50.860;6.208;2023-05-15T14:53:30;24.53;;;19.03;;
7525;SDS011;3804;50.860;6.208;2023-05-15T14:55:57;20.93;;;18.07;;
7525;SDS011;3804;50.860;6.208;2023-05-15T14:58:24;20.43;;;18.27;;
7525;SDS011;3804;50.860;6.208;2023-05-15T15:00:52;20.47;;;17.50;;
7525;SDS011;3804;50.860;6.208;2023-05-15T15:03:18;21.10;;;18.23;;
7525;SDS011;3804;50.860;6.208;2023-05-15T15:05:48;20.00;;;17.73;;
7525;SDS011;3804;50.860;6.208;2023-05-15T15:08:14;19.90;;;17.47;;
7525;SDS011;3804;50.860;6.208;2023-05-15T15:10:41;22.60;;;17.97;;